createdAt,value
2023-05-18T00:01:10.255Z,8.64
2023-05-18T00:03:39.571Z,8.61
2023-05-18T00:06:10.480Z,8.60
2023-05-18T00:08:39.768Z,8.58
2023-05-18T00:11:09.404Z,8.56
2023-05-18T00:13:38.540Z,8.51
2023-05-18T00:16:10.877Z,8.49
2023-05-18T00:18:44.783Z,8.44
2023-05-18T00:21:15.696Z,8.43
2023-05-18T00:23:50.664Z,8.41
2023-05-18T00:26:20.471Z,8.39
2023-05-18T00:28:56.265Z,8.37
2023-05-18T00:31:28.523Z,8.35
2023-05-18T00:34:00.533Z,8.32
2023-05-18T00:36:32.972Z,8.33
2023-05-18T00:39:05.402Z,8.29
2023-05-18T00:41:35.014Z,8.28
2023-05-18T00:44:04.468Z,8.26
2023-05-18T00:46:33.399Z,8.25
2023-05-18T00:49:04.317Z,8.25
2023-05-18T00:51:35.980Z,8.22
2023-05-18T00:54:12.367Z,8.21
2023-05-18T00:56:46.173Z,8.19
2023-05-18T00:59:18.152Z,8.16
2023-05-18T01:01:48.186Z,8.18
2023-05-18T01:04:24.089Z,8.15
2023-05-18T01:07:06.222Z,8.15
2023-05-18T01:09:35.577Z,8.16
2023-05-18T01:12:12.909Z,8.13
2023-05-18T01:14:49.983Z,8.15
2023-05-18T01:17:34.796Z,8.13
2023-05-18T01:20:33.605Z,8.12
2023-05-18T01:23:29.396Z,8.11
2023-05-18T01:26:16.123Z,8.08
2023-05-18T01:28:52.563Z,8.09
2023-05-18T01:31:28.398Z,8.09
2023-05-18T01:33:58.488Z,8.05
2023-05-18T01:36:31.781Z,8.04
2023-05-18T01:39:03.948Z,8.02
2023-05-18T01:41:38.707Z,8.01
2023-05-18T01:44:19.263Z,7.98
2023-05-18T01:47:06.652Z,7.97
2023-05-18T01:49:43.888Z,7.93
2023-05-18T01:52:18.884Z,7.91
2023-05-18T01:54:54.201Z,7.87
2023-05-18T01:57:29.739Z,7.83
2023-05-18T02:00:00.671Z,7.83
2023-05-18T02:02:38.439Z,7.80
2023-05-18T02:05:11.781Z,7.76
2023-05-18T02:07:43.544Z,7.71
2023-05-18T02:10:14.934Z,7.68
2023-05-18T02:12:48.540Z,7.63
2023-05-18T02:15:19.335Z,7.58
2023-05-18T02:17:50.891Z,7.53
2023-05-18T02:20:20.473Z,7.51
2023-05-18T02:22:49.538Z,7.46
2023-05-18T02:25:19.870Z,7.39
2023-05-18T02:27:53.549Z,7.33
2023-05-18T02:30:24.759Z,7.30
2023-05-18T02:32:53.574Z,7.26
2023-05-18T02:35:23.005Z,7.18
2023-05-18T02:37:53.563Z,7.15
2023-05-18T02:40:23.119Z,7.12
2023-05-18T02:42:52.130Z,7.05
2023-05-18T02:45:21.627Z,7.00
2023-05-18T02:47:50.759Z,6.97
2023-05-18T02:50:20.144Z,6.94
2023-05-18T02:52:50.803Z,6.91
2023-05-18T02:55:19.881Z,6.87
2023-05-18T02:58:07.396Z,6.87
2023-05-18T03:01:03.086Z,6.86
2023-05-18T03:03:37.000Z,6.87
2023-05-18T03:06:08.551Z,6.84
2023-05-18T03:08:40.844Z,6.84
2023-05-18T03:11:12.971Z,6.83
2023-05-18T03:13:43.137Z,6.84
2023-05-18T03:16:15.065Z,6.86
2023-05-18T03:18:44.440Z,6.84
2023-05-18T03:21:16.997Z,6.86
2023-05-18T03:23:46.375Z,6.88
2023-05-18T03:26:16.277Z,6.90
2023-05-18T03:28:45.470Z,6.90
2023-05-18T03:31:14.587Z,6.94
2023-05-18T03:33:43.798Z,6.95
2023-05-18T03:36:22.323Z,7.00
2023-05-18T03:38:55.732Z,7.01
2023-05-18T03:41:29.544Z,7.07
2023-05-18T03:44:00.514Z,7.12
2023-05-18T03:46:31.548Z,7.15
2023-05-18T03:49:02.761Z,7.16
2023-05-18T03:51:38.300Z,7.22
2023-05-18T03:54:10.664Z,7.22
2023-05-18T03:56:44.534Z,7.26
2023-05-18T03:59:13.733Z,7.29
2023-05-18T04:01:43.863Z,7.35
2023-05-18T04:04:17.870Z,7.35
2023-05-18T04:06:46.642Z,7.38
2023-05-18T04:09:17.989Z,7.42
2023-05-18T04:11:46.960Z,7.45
2023-05-18T04:14:16.716Z,7.49
2023-05-18T04:16:46.273Z,7.51
2023-05-18T04:19:16.983Z,7.49
2023-05-18T04:21:46.846Z,7.56
2023-05-18T04:24:16.053Z,7.61
2023-05-18T04:26:46.091Z,7.64
2023-05-18T04:29:18.313Z,7.70
2023-05-18T04:31:49.667Z,7.74
2023-05-18T04:34:18.761Z,7.78
2023-05-18T04:36:48.424Z,7.85
2023-05-18T04:39:18.880Z,7.91
2023-05-18T04:41:57.655Z,7.97
2023-05-18T04:44:30.794Z,8.01
2023-05-18T04:47:03.975Z,8.05
2023-05-18T04:49:38.099Z,8.08
2023-05-18T04:52:11.845Z,8.16
2023-05-18T04:54:41.071Z,8.23
2023-05-18T04:57:11.534Z,8.29
2023-05-18T04:59:44.593Z,8.33
2023-05-18T05:02:14.706Z,8.39
2023-05-18T05:04:44.422Z,8.41
2023-05-18T05:07:13.885Z,8.46
2023-05-18T05:09:46.717Z,8.54
2023-05-18T05:12:15.604Z,8.58
2023-05-18T05:14:45.846Z,8.63
2023-05-18T05:17:28.589Z,8.67
2023-05-18T05:19:57.910Z,8.75
2023-05-18T05:22:27.030Z,8.79
2023-05-18T05:24:59.997Z,8.88
2023-05-18T05:27:40.147Z,8.92
2023-05-18T05:30:18.488Z,8.99
2023-05-18T05:32:50.272Z,9.04
2023-05-18T05:35:34.883Z,9.11
2023-05-18T05:38:05.350Z,9.21
2023-05-18T05:40:37.845Z,9.29
2023-05-18T05:43:07.608Z,9.34
2023-05-18T05:45:43.214Z,9.39
2023-05-18T05:48:15.522Z,9.43
2023-05-18T05:50:45.652Z,9.49
2023-05-18T05:53:17.401Z,9.57
2023-05-18T05:55:47.131Z,9.68
2023-05-18T05:58:20.787Z,9.71
2023-05-18T06:00:53.547Z,9.85
2023-05-18T06:03:23.092Z,10.02
2023-05-18T06:05:52.454Z,10.17
2023-05-18T06:08:24.695Z,10.39
2023-05-18T06:10:55.330Z,10.57
2023-05-18T06:13:24.281Z,10.71
2023-05-18T06:15:59.928Z,10.78
2023-05-18T06:18:31.904Z,10.84
2023-05-18T06:21:05.372Z,10.94
2023-05-18T06:23:39.459Z,10.95
2023-05-18T06:26:28.782Z,11.00
2023-05-18T06:29:27.466Z,11.06
2023-05-18T06:32:10.087Z,11.09
2023-05-18T06:34:45.406Z,11.14
2023-05-18T06:37:14.995Z,11.19
2023-05-18T06:39:47.292Z,11.29
2023-05-18T06:42:16.537Z,11.37
2023-05-18T06:44:56.059Z,11.49
2023-05-18T06:47:48.134Z,11.55
2023-05-18T06:50:17.601Z,11.61
2023-05-18T06:52:51.085Z,11.69
2023-05-18T06:55:20.541Z,11.77
2023-05-18T06:57:52.917Z,11.78
2023-05-18T07:00:26.838Z,11.82
2023-05-18T07:02:57.590Z,11.89
2023-05-18T07:05:36.891Z,11.93
2023-05-18T07:08:07.680Z,12.02
2023-05-18T07:10:36.995Z,12.07
2023-05-18T07:13:08.551Z,12.07
2023-05-18T07:15:39.191Z,12.10
2023-05-18T07:18:08.152Z,12.20
2023-05-18T07:20:37.691Z,12.26
2023-05-18T07:23:08.489Z,12.33
2023-05-18T07:25:38.011Z,12.41
2023-05-18T07:28:09.049Z,12.50
2023-05-18T07:30:38.402Z,12.57
2023-05-18T07:33:19.297Z,12.55
2023-05-18T07:35:48.221Z,12.64
2023-05-18T07:38:19.573Z,12.68
2023-05-18T07:40:48.685Z,12.76
2023-05-18T07:43:17.576Z,12.89
2023-05-18T07:45:46.656Z,12.98
2023-05-18T07:48:15.811Z,13.05
2023-05-18T07:50:44.851Z,13.17
2023-05-18T07:53:16.275Z,13.29
2023-05-18T07:55:45.759Z,13.38
2023-05-18T07:58:16.657Z,13.50
2023-05-18T08:00:45.834Z,13.57
2023-05-18T08:03:15.782Z,13.68
2023-05-18T08:05:45.934Z,13.79
2023-05-18T08:08:17.695Z,13.89
2023-05-18T08:10:47.236Z,14.02
2023-05-18T08:13:17.354Z,14.12
2023-05-18T08:15:51.055Z,14.24
2023-05-18T08:18:28.454Z,14.33
2023-05-18T08:20:57.761Z,14.47
2023-05-18T08:23:26.656Z,14.54
2023-05-18T08:25:59.654Z,14.44
2023-05-18T08:28:28.579Z,14.41
2023-05-18T08:30:57.873Z,14.47
2023-05-18T08:33:26.820Z,14.55
2023-05-18T08:35:56.245Z,14.59
2023-05-18T08:38:25.072Z,14.64
2023-05-18T08:41:06.641Z,14.68
2023-05-18T08:43:41.833Z,14.72
2023-05-18T08:46:20.159Z,14.79
2023-05-18T08:48:51.953Z,14.89
2023-05-18T08:51:22.033Z,14.92
2023-05-18T08:53:54.028Z,14.95
2023-05-18T08:56:25.935Z,15.00
2023-05-18T08:59:00.274Z,15.13
2023-05-18T09:01:30.850Z,15.10
2023-05-18T09:04:00.219Z,15.14
2023-05-18T09:06:29.623Z,15.23
2023-05-18T09:08:58.824Z,15.35
2023-05-18T09:11:28.481Z,15.40
2023-05-18T09:13:58.596Z,15.45
2023-05-18T09:16:28.804Z,15.45
2023-05-18T09:18:58.352Z,15.54
2023-05-18T09:21:32.230Z,15.59
2023-05-18T09:24:00.584Z,15.69
2023-05-18T09:26:30.453Z,15.78
2023-05-18T09:28:59.686Z,15.83
2023-05-18T09:31:31.723Z,15.94
2023-05-18T09:34:01.340Z,16.00
2023-05-18T09:36:33.958Z,16.12
2023-05-18T09:39:09.732Z,16.19
2023-05-18T09:41:40.850Z,16.32
2023-05-18T09:44:13.102Z,16.45
2023-05-18T09:46:44.012Z,16.59
2023-05-18T09:49:21.249Z,16.72
2023-05-18T09:51:50.614Z,16.72
2023-05-18T09:54:24.229Z,16.62
2023-05-18T09:57:09.033Z,16.49
2023-05-18T09:59:40.900Z,16.47
2023-05-18T10:02:15.722Z,16.47
2023-05-18T10:04:45.236Z,16.49
2023-05-18T10:07:18.230Z,16.48
2023-05-18T10:09:47.259Z,16.45
2023-05-18T10:12:18.114Z,16.49
2023-05-18T10:14:49.204Z,16.49
2023-05-18T10:17:18.958Z,16.52
2023-05-18T10:19:51.837Z,16.56
2023-05-18T10:22:23.136Z,16.54
2023-05-18T10:24:52.757Z,16.62
2023-05-18T10:27:27.765Z,16.66
2023-05-18T10:29:59.321Z,16.65
2023-05-18T10:32:30.966Z,16.55
2023-05-18T10:35:01.581Z,16.44
2023-05-18T10:37:33.784Z,16.37
2023-05-18T10:40:04.139Z,16.32
2023-05-18T10:42:33.627Z,16.34
2023-05-18T10:45:06.347Z,16.38
2023-05-18T10:47:39.408Z,16.41
2023-05-18T10:50:11.651Z,16.42
2023-05-18T10:52:42.966Z,16.51
2023-05-18T10:55:17.828Z,16.59
2023-05-18T10:57:56.745Z,16.68
2023-05-18T11:00:31.068Z,16.83
2023-05-18T11:03:07.951Z,16.90
2023-05-18T11:05:39.324Z,17.00
2023-05-18T11:08:08.715Z,17.04
2023-05-18T11:10:41.909Z,17.10
2023-05-18T11:13:14.798Z,17.21
2023-05-18T11:16:06.764Z,17.25
2023-05-18T11:18:38.362Z,17.35
2023-05-18T11:21:34.458Z,17.42
2023-05-18T11:24:19.846Z,17.52
2023-05-18T11:26:50.685Z,17.51
2023-05-18T11:29:22.290Z,17.48
2023-05-18T11:31:53.505Z,17.48
2023-05-18T11:34:52.739Z,17.43
2023-05-18T11:37:48.837Z,17.49
2023-05-18T11:40:47.131Z,17.64
2023-05-18T11:43:27.354Z,17.64
2023-05-18T11:46:00.866Z,17.69
2023-05-18T11:48:31.784Z,17.64
2023-05-18T11:51:09.032Z,17.62
2023-05-18T11:53:38.547Z,17.49
2023-05-18T11:56:18.026Z,17.43
2023-05-18T11:59:07.402Z,17.46
2023-05-18T12:01:41.521Z,17.38
2023-05-18T12:04:11.619Z,17.37
2023-05-18T12:06:44.546Z,17.38
2023-05-18T12:09:34.892Z,17.38
2023-05-18T12:12:13.540Z,17.37
2023-05-18T12:14:53.485Z,17.34
2023-05-18T12:17:23.905Z,17.24
2023-05-18T12:19:52.908Z,17.17
2023-05-18T12:22:22.121Z,17.21
2023-05-18T12:24:52.878Z,17.21
2023-05-18T12:27:22.806Z,17.24
2023-05-18T12:29:52.953Z,17.32
2023-05-18T12:32:25.726Z,17.31
2023-05-18T12:34:54.866Z,17.30
2023-05-18T12:37:34.121Z,17.18
2023-05-18T12:40:17.832Z,17.17
2023-05-18T12:42:56.545Z,17.23
2023-05-18T12:45:33.344Z,17.23
2023-05-18T12:48:15.647Z,17.17
2023-05-18T12:50:50.244Z,17.14
2023-05-18T12:53:19.752Z,17.00
2023-05-18T12:55:57.995Z,16.96
2023-05-18T12:58:27.377Z,16.90
2023-05-18T13:00:56.402Z,16.89
2023-05-18T13:03:26.238Z,16.89
2023-05-18T13:06:05.552Z,16.82
2023-05-18T13:08:35.772Z,16.80
2023-05-18T13:11:13.513Z,16.83
2023-05-18T13:14:04.502Z,16.86
2023-05-18T13:16:39.116Z,16.83
2023-05-18T13:19:09.632Z,16.90
2023-05-18T13:21:39.150Z,16.92
2023-05-18T13:24:08.669Z,16.86
2023-05-18T13:26:37.774Z,16.82
2023-05-18T13:29:08.062Z,16.83
2023-05-18T13:31:37.427Z,16.85
2023-05-18T13:34:06.342Z,16.75
2023-05-18T13:36:36.586Z,16.68
2023-05-18T13:39:06.763Z,16.61
2023-05-18T13:41:36.276Z,16.56
2023-05-18T13:44:05.613Z,16.48
2023-05-18T13:46:37.025Z,16.44
2023-05-18T13:49:05.946Z,16.35
2023-05-18T13:51:35.116Z,16.24
2023-05-18T13:54:04.408Z,16.17
2023-05-18T13:56:33.304Z,16.13
2023-05-18T13:59:03.167Z,16.09
2023-05-18T14:01:32.481Z,16.07
2023-05-18T14:04:01.832Z,16.03
2023-05-18T14:06:31.330Z,15.92
2023-05-18T14:09:01.702Z,15.85
2023-05-18T14:11:34.089Z,15.78
2023-05-18T14:14:03.267Z,15.72
2023-05-18T14:16:32.443Z,15.69
2023-05-18T14:19:01.666Z,15.66
2023-05-18T14:21:31.238Z,15.62
2023-05-18T14:24:03.513Z,15.58
2023-05-18T14:26:33.692Z,15.51
2023-05-18T14:29:03.740Z,15.50
2023-05-18T14:31:32.903Z,15.47
2023-05-18T14:34:03.575Z,15.45
2023-05-18T14:36:32.737Z,15.37
2023-05-18T14:39:01.918Z,15.37
2023-05-18T14:41:31.044Z,15.29
2023-05-18T14:44:03.171Z,15.23
2023-05-18T14:46:32.329Z,15.15
2023-05-18T14:49:01.524Z,15.15
2023-05-18T14:51:30.784Z,15.09
2023-05-18T14:54:00.073Z,15.03
2023-05-18T14:56:30.230Z,15.00
2023-05-18T14:58:59.223Z,14.95
2023-05-18T15:01:28.550Z,14.90
2023-05-18T15:03:57.719Z,14.85
2023-05-18T15:06:27.761Z,14.80
2023-05-18T15:08:57.320Z,14.72
2023-05-18T15:11:26.663Z,14.68
2023-05-18T15:13:55.774Z,14.68
2023-05-18T15:16:25.402Z,14.62
2023-05-18T15:18:54.587Z,14.57
2023-05-18T15:21:24.216Z,14.55
2023-05-18T15:23:53.201Z,14.50
2023-05-18T15:26:22.521Z,14.48
2023-05-18T15:28:53.777Z,14.42
2023-05-18T15:31:23.176Z,14.44
2023-05-18T15:33:52.572Z,14.40
2023-05-18T15:36:23.739Z,14.37
2023-05-18T15:38:53.399Z,14.37
2023-05-18T15:41:23.431Z,14.35
2023-05-18T15:43:54.435Z,14.33
2023-05-18T15:46:23.981Z,14.27
2023-05-18T15:48:55.961Z,14.27
2023-05-18T15:51:25.632Z,14.25
2023-05-18T15:53:54.633Z,14.24
2023-05-18T15:56:23.809Z,14.20
2023-05-18T15:58:55.492Z,14.20
2023-05-18T16:01:25.847Z,14.21
2023-05-18T16:03:55.968Z,14.20
2023-05-18T16:06:25.376Z,14.19
2023-05-18T16:08:55.740Z,14.16
2023-05-18T16:11:25.567Z,14.13
2023-05-18T16:13:56.796Z,14.09
2023-05-18T16:16:26.476Z,14.10
2023-05-18T16:18:55.466Z,14.07
2023-05-18T16:21:24.429Z,14.03
2023-05-18T16:23:53.312Z,14.00
2023-05-18T16:26:22.415Z,14.00
2023-05-18T16:28:51.790Z,13.97
2023-05-18T16:31:21.368Z,13.97
2023-05-18T16:33:50.091Z,13.95
2023-05-18T16:36:19.094Z,13.92
2023-05-18T16:38:47.900Z,13.93
2023-05-18T16:41:17.192Z,13.92
2023-05-18T16:43:46.060Z,13.90
2023-05-18T16:46:19.438Z,13.89
2023-05-18T16:48:51.389Z,13.86
2023-05-18T16:51:20.782Z,13.84
2023-05-18T16:53:51.705Z,13.78
2023-05-18T16:56:21.743Z,13.75
2023-05-18T16:58:55.718Z,13.75
2023-05-18T17:01:28.537Z,13.72
2023-05-18T17:03:58.690Z,13.69
2023-05-18T17:06:28.260Z,13.66
2023-05-18T17:08:57.434Z,13.64
2023-05-18T17:11:28.357Z,13.59
2023-05-18T17:13:59.505Z,13.58
2023-05-18T17:16:29.530Z,13.52
2023-05-18T17:18:58.593Z,13.52
2023-05-18T17:21:30.546Z,13.48
2023-05-18T17:23:59.788Z,13.48
2023-05-18T17:26:32.491Z,13.48
2023-05-18T17:29:01.312Z,13.42
2023-05-18T17:31:31.065Z,13.41
2023-05-18T17:34:00.159Z,13.41
2023-05-18T17:36:29.367Z,13.38
2023-05-18T17:38:58.420Z,13.33
2023-05-18T17:41:27.877Z,13.33
2023-05-18T17:44:01.695Z,13.29
2023-05-18T17:46:31.391Z,13.26
2023-05-18T17:49:03.474Z,13.24
2023-05-18T17:51:33.104Z,13.23
2023-05-18T17:54:02.468Z,13.19
2023-05-18T17:56:35.203Z,13.16
2023-05-18T17:59:05.012Z,13.16
2023-05-18T18:01:38.052Z,13.12
2023-05-18T18:04:07.123Z,13.09
2023-05-18T18:06:39.606Z,13.09
2023-05-18T18:09:08.666Z,13.07
2023-05-18T18:11:41.551Z,13.06
2023-05-18T18:14:15.813Z,13.05
2023-05-18T18:16:45.710Z,13.00
2023-05-18T18:19:18.683Z,12.99
2023-05-18T18:21:50.959Z,12.95
2023-05-18T18:24:21.803Z,12.95
2023-05-18T18:26:52.645Z,12.95
2023-05-18T18:29:21.956Z,12.92
2023-05-18T18:31:52.056Z,12.92
2023-05-18T18:34:23.651Z,12.88
2023-05-18T18:37:00.848Z,12.85
2023-05-18T18:39:34.510Z,12.78
2023-05-18T18:42:06.954Z,12.76
2023-05-18T18:44:37.728Z,12.74
2023-05-18T18:47:07.745Z,12.72
2023-05-18T18:49:56.109Z,12.67
2023-05-18T18:52:26.181Z,12.65
2023-05-18T18:54:55.799Z,12.64
2023-05-18T18:57:27.653Z,12.58
2023-05-18T18:59:58.578Z,12.57
2023-05-18T19:02:29.018Z,12.52
2023-05-18T19:04:59.114Z,12.50
2023-05-18T19:07:29.063Z,12.45
2023-05-18T19:09:57.951Z,12.44
2023-05-18T19:12:27.082Z,12.41
2023-05-18T19:14:56.044Z,12.39
2023-05-18T19:17:26.324Z,12.36
2023-05-18T19:19:55.351Z,12.31
2023-05-18T19:22:24.316Z,12.29
2023-05-18T19:24:53.211Z,12.26
2023-05-18T19:27:23.402Z,12.22
2023-05-18T19:29:52.698Z,12.24
2023-05-18T19:32:22.745Z,12.22
2023-05-18T19:34:51.822Z,12.23
2023-05-18T19:37:21.299Z,12.23
2023-05-18T19:39:50.491Z,12.22
2023-05-18T19:42:20.111Z,12.20
2023-05-18T19:44:49.132Z,12.17
2023-05-18T19:47:18.276Z,12.20
2023-05-18T19:49:47.422Z,12.16
2023-05-18T19:52:19.481Z,12.16
2023-05-18T19:54:50.533Z,12.16
2023-05-18T19:57:20.989Z,12.17
2023-05-18T19:59:50.274Z,12.17
2023-05-18T20:02:19.356Z,12.19
2023-05-18T20:04:48.602Z,12.17
2023-05-18T20:07:17.860Z,12.22
2023-05-18T20:09:47.061Z,12.20
2023-05-18T20:12:16.263Z,12.22
2023-05-18T20:14:46.635Z,12.26
2023-05-18T20:17:21.227Z,12.24
2023-05-18T20:19:50.554Z,12.26
2023-05-18T20:22:20.412Z,12.31
2023-05-18T20:24:50.683Z,12.30
2023-05-18T20:27:19.784Z,12.33
2023-05-18T20:29:48.610Z,12.29
2023-05-18T20:32:18.094Z,12.30
2023-05-18T20:34:47.275Z,12.27
2023-05-18T20:37:30.858Z,12.27
2023-05-18T20:40:06.806Z,12.27
2023-05-18T20:42:40.902Z,12.27
2023-05-18T20:45:11.756Z,12.27
2023-05-18T20:47:46.831Z,12.26
2023-05-18T20:50:17.327Z,12.26
2023-05-18T20:52:46.920Z,12.24
2023-05-18T20:55:17.949Z,12.24
2023-05-18T20:57:50.361Z,12.24
2023-05-18T21:00:22.906Z,12.26
2023-05-18T21:02:53.984Z,12.24
2023-05-18T21:05:23.202Z,12.27
2023-05-18T21:07:52.974Z,12.27
2023-05-18T21:10:25.970Z,12.26
2023-05-18T21:12:55.547Z,12.26
2023-05-18T21:15:26.848Z,12.27
2023-05-18T21:18:03.245Z,12.27
2023-05-18T21:20:33.352Z,12.24
2023-05-18T21:23:03.913Z,12.23
2023-05-18T21:25:33.918Z,12.23
2023-05-18T21:28:06.524Z,12.22
2023-05-18T21:30:35.312Z,12.19
2023-05-18T21:33:05.534Z,12.17
2023-05-18T21:35:34.863Z,12.15
2023-05-18T21:38:07.066Z,12.13
2023-05-18T21:40:36.067Z,12.10
2023-05-18T21:43:07.148Z,12.06
2023-05-18T21:45:36.013Z,12.05
2023-05-18T21:48:09.760Z,12.03
2023-05-18T21:50:38.746Z,12.00
2023-05-18T21:53:08.211Z,12.00
2023-05-18T21:55:37.237Z,11.99
2023-05-18T21:58:06.951Z,11.96
2023-05-18T22:00:37.675Z,11.96
2023-05-18T22:03:09.622Z,11.96
2023-05-18T22:05:40.895Z,11.93
2023-05-18T22:08:11.186Z,11.95
2023-05-18T22:10:43.223Z,11.96
2023-05-18T22:13:13.479Z,11.95
2023-05-18T22:15:42.299Z,11.90
2023-05-18T22:18:11.478Z,11.90
2023-05-18T22:20:41.313Z,11.93
2023-05-18T22:23:10.955Z,11.95
2023-05-18T22:25:42.165Z,11.93
2023-05-18T22:28:12.361Z,11.93
2023-05-18T22:30:44.251Z,11.92
2023-05-18T22:33:14.049Z,11.92
2023-05-18T22:35:43.040Z,11.90
2023-05-18T22:38:14.021Z,11.89
2023-05-18T22:40:43.779Z,11.88
2023-05-18T22:43:14.729Z,11.85
2023-05-18T22:45:43.582Z,11.85
2023-05-18T22:48:15.767Z,11.84
2023-05-18T22:50:47.769Z,11.82
2023-05-18T22:53:16.745Z,11.81
2023-05-18T22:55:48.522Z,11.78
2023-05-18T22:58:17.647Z,11.78
2023-05-18T23:00:46.628Z,11.75
2023-05-18T23:03:19.097Z,11.72
2023-05-18T23:05:48.320Z,11.72
2023-05-18T23:08:17.227Z,11.69
2023-05-18T23:10:46.138Z,11.68
2023-05-18T23:13:16.889Z,11.68
2023-05-18T23:15:47.203Z,11.65
2023-05-18T23:18:18.497Z,11.65
2023-05-18T23:20:50.107Z,11.62
2023-05-18T23:23:27.459Z,11.61
2023-05-18T23:25:59.605Z,11.57
2023-05-18T23:28:29.413Z,11.55
2023-05-18T23:31:03.021Z,11.51
2023-05-18T23:33:34.587Z,11.53
2023-05-18T23:36:08.056Z,11.51
2023-05-18T23:38:40.350Z,11.49
2023-05-18T23:41:10.260Z,11.49
2023-05-18T23:43:43.410Z,11.47
2023-05-18T23:46:16.481Z,11.41
2023-05-18T23:48:46.617Z,11.40
2023-05-18T23:51:18.717Z,11.37
2023-05-18T23:53:58.965Z,11.36
2023-05-18T23:56:29.051Z,11.33
2023-05-18T23:59:00.937Z,11.31
